Time;durP1;ratioP1;P1;durP2;ratioP2;P2;SDS_P1;SDS_P2;PMS_P1;PMS_P2;Temp;Humidity;BMP_temperature;BMP_pressure;BME280_temperature;BME280_humidity;BME280_pressure;Samples;Min_cycle;Max_cycle;Signal;HPM_P1;HPM_P2
2022/08/18 00:00:29;;;;;;;12.15;8.88;;;19.20;99.90;;;;;;5058590;28;47375;-77
2022/08/18 00:03:00;;;;;;;16.67;10.80;;;19.20;99.90;;;;;;5053508;27;39157;-77
2022/08/18 00:05:27;;;;;;;13.07;9.73;;;19.20;99.90;;;;;;5056228;28;48682;-77
2022/08/18 00:07:53;;;;;;;15.13;10.55;;;19.20;99.90;;;;;;5053703;27;37756;-77
2022/08/18 00:10:19;;;;;;;15.52;11.98;;;19.20;99.90;;;;;;5055669;27;36701;-77
2022/08/18 00:12:45;;;;;;;19.63;12.82;;;19.20;99.90;;;;;;5054470;28;39435;-77
2022/08/18 00:15:14;;;;;;;18.17;12.85;;;19.20;99.90;;;;;;5054289;27;39218;-77
2022/08/18 00:17:41;;;;;;;16.52;12.43;;;19.10;99.90;;;;;;5055540;27;37004;-77
2022/08/18 00:20:11;;;;;;;17.20;12.80;;;19.10;99.90;;;;;;5087803;27;37387;-77
2022/08/18 00:22:40;;;;;;;15.50;10.60;;;19.20;99.90;;;;;;5060706;27;39534;-77
2022/08/18 00:25:11;;;;;;;11.38;10.10;;;19.10;99.90;;;;;;5058418;28;39333;-76
2022/08/18 00:27:38;;;;;;;16.02;10.73;;;19.10;99.90;;;;;;5060358;28;39558;-76
2022/08/18 00:30:08;;;;;;;15.45;11.50;;;19.10;99.90;;;;;;5057864;27;39169;-74
2022/08/18 00:32:37;;;;;;;12.50;8.68;;;19.10;99.90;;;;;;5057857;27;36680;-77
2022/08/18 00:35:08;;;;;;;13.57;11.25;;;19.00;99.90;;;;;;5060163;27;37880;-77
2022/08/18 00:37:35;;;;;;;10.70;9.45;;;19.00;99.90;;;;;;5053390;27;47087;-76
2022/08/18 00:40:02;;;;;;;11.88;9.45;;;19.00;99.90;;;;;;5043635;28;36648;-76
2022/08/18 00:42:30;;;;;;;12.38;8.25;;;18.90;99.90;;;;;;5043197;27;38316;-77
2022/08/18 00:44:59;;;;;;;16.60;10.27;;;18.90;99.90;;;;;;5040434;27;39289;-76
2022/08/18 00:47:28;;;;;;;11.40;7.93;;;18.90;99.90;;;;;;5057141;27;39332;-78
2022/08/18 00:49:54;;;;;;;12.45;8.38;;;18.90;99.90;;;;;;5044878;28;37015;-77
2022/08/18 00:52:22;;;;;;;9.20;8.20;;;18.90;99.90;;;;;;5041885;28;39523;-77
2022/08/18 00:54:50;;;;;;;11.18;8.02;;;18.90;99.90;;;;;;5052906;28;39298;-77
2022/08/18 00:57:20;;;;;;;16.58;10.38;;;18.80;99.90;;;;;;5056702;27;38351;-76
2022/08/18 00:59:55;;;;;;;10.77;8.75;;;18.90;99.90;;;;;;5058223;28;36847;-77
2022/08/18 01:02:38;;;;;;;13.50;8.48;;;18.80;99.90;;;;;;5052639;28;39552;-77
2022/08/18 01:05:16;;;;;;;9.55;7.68;;;18.90;99.90;;;;;;5039878;28;38424;-77
2022/08/18 01:07:45;;;;;;;8.90;8.00;;;18.80;99.90;;;;;;5042720;28;37389;-78
2022/08/18 01:10:16;;;;;;;13.65;9.93;;;18.80;99.90;;;;;;5044571;28;38036;-76
2022/08/18 01:12:44;;;;;;;10.60;8.43;;;18.80;99.90;;;;;;5050751;28;39386;-76
2022/08/18 01:15:12;;;;;;;14.30;9.65;;;18.80;99.90;;;;;;5041518;28;38384;-76
2022/08/18 01:23:48;;;;;;;8.20;7.40;;;18.80;99.90;;;;;;5073105;27;49421;-76
2022/08/18 01:26:16;;;;;;;8.88;8.00;;;18.80;99.90;;;;;;5069067;27;38796;-77
2022/08/18 01:28:45;;;;;;;11.05;9.15;;;18.70;99.90;;;;;;5069077;28;38270;-77
2022/08/18 01:31:28;;;;;;;9.73;8.52;;;18.70;99.90;;;;;;5069603;27;38050;-77
2022/08/18 01:33:55;;;;;;;9.30;8.25;;;18.60;99.90;;;;;;5058259;28;39493;-77
2022/08/18 01:36:22;;;;;;;8.77;7.90;;;18.60;99.90;;;;;;5058944;27;38586;-77
2022/08/18 01:38:52;;;;;;;12.00;8.90;;;18.50;99.90;;;;;;5060890;27;37782;-77
2022/08/18 01:41:20;;;;;;;10.05;8.80;;;18.50;99.90;;;;;;5056278;27;36379;-77
2022/08/18 01:43:48;;;;;;;10.27;8.82;;;18.50;99.90;;;;;;5087344;27;39661;-77
2022/08/18 01:46:18;;;;;;;9.98;8.90;;;18.50;99.90;;;;;;5091002;27;41143;-77
2022/08/18 01:48:47;;;;;;;8.75;7.95;;;18.50;99.90;;;;;;5058968;27;37457;-77
2022/08/18 01:51:13;;;;;;;9.75;8.85;;;18.40;99.90;;;;;;5059184;28;37499;-77
2022/08/18 01:53:40;;;;;;;10.77;9.35;;;18.40;99.90;;;;;;5054280;27;39849;-77
2022/08/18 01:56:08;;;;;;;10.82;8.50;;;18.40;99.90;;;;;;5057886;27;39046;-76
2022/08/18 01:58:35;;;;;;;9.98;8.98;;;18.30;99.90;;;;;;5060719;27;38874;-77
2022/08/18 02:01:02;;;;;;;10.88;8.90;;;18.30;99.90;;;;;;5059285;28;37831;-77
2022/08/18 02:03:37;;;;;;;10.27;9.10;;;18.20;99.90;;;;;;5067374;27;47172;-76
2022/08/18 02:06:10;;;;;;;11.40;9.88;;;18.20;99.90;;;;;;5056325;27;38148;-76
2022/08/18 02:08:37;;;;;;;10.55;9.48;;;18.10;99.90;;;;;;5092531;27;37906;-77
2022/08/18 02:11:05;;;;;;;10.30;8.95;;;18.10;99.90;;;;;;5060338;27;37718;-76
2022/08/18 02:13:33;;;;;;;11.68;10.45;;;18.10;99.90;;;;;;5058287;27;38637;-78
2022/08/18 02:16:00;;;;;;;11.77;10.57;;;18.00;99.90;;;;;;5065143;28;39871;-76
2022/08/18 02:18:29;;;;;;;12.50;11.13;;;18.00;99.90;;;;;;5063544;27;38554;-75
2022/08/18 02:21:04;;;;;;;11.32;10.23;;;18.00;99.90;;;;;;5071719;28;38180;-77
2022/08/18 02:23:30;;;;;;;11.18;9.35;;;18.00;99.90;;;;;;5080331;28;47134;-78
2022/08/18 02:25:56;;;;;;;12.68;10.35;;;17.90;99.90;;;;;;5074956;27;37963;-77
2022/08/18 02:28:23;;;;;;;12.68;11.57;;;17.90;99.90;;;;;;5058189;27;37804;-77
2022/08/18 02:30:49;;;;;;;12.45;10.20;;;17.80;99.90;;;;;;5059797;27;37516;-76
2022/08/18 02:33:15;;;;;;;12.63;11.02;;;17.80;99.90;;;;;;5059736;28;39632;-78
2022/08/18 02:35:42;;;;;;;11.10;10.05;;;17.80;99.90;;;;;;5059280;27;38078;-78
2022/08/18 02:38:09;;;;;;;11.13;10.00;;;17.80;99.90;;;;;;5056704;27;36608;-77
2022/08/18 02:40:35;;;;;;;12.90;10.30;;;17.70;99.90;;;;;;5058280;27;37377;-77
2022/08/18 02:43:06;;;;;;;11.45;10.27;;;17.70;99.90;;;;;;5062476;27;40251;-77
2022/08/18 02:45:32;;;;;;;13.43;12.13;;;17.70;99.90;;;;;;5057140;28;39574;-78
2022/08/18 02:47:59;;;;;;;12.13;10.93;;;17.70;99.90;;;;;;5060635;28;38486;-78
2022/08/18 02:50:25;;;;;;;12.40;10.88;;;17.70;99.90;;;;;;5059878;28;37680;-78
2022/08/18 02:52:51;;;;;;;13.27;11.98;;;17.60;99.90;;;;;;5058105;27;39179;-78
2022/08/18 02:55:17;;;;;;;12.23;10.93;;;17.60;99.90;;;;;;5061176;27;38189;-78
2022/08/18 02:57:46;;;;;;;11.70;10.60;;;17.60;99.90;;;;;;5059075;28;36700;-78
2022/08/18 03:00:15;;;;;;;12.77;11.48;;;17.60;99.90;;;;;;5054473;27;38867;-77
2022/08/18 03:02:52;;;;;;;13.00;11.80;;;17.50;99.90;;;;;;5050424;27;40078;-77
2022/08/18 03:05:18;;;;;;;12.48;11.05;;;17.50;99.90;;;;;;5059447;27;38152;-78
2022/08/18 03:07:45;;;;;;;11.30;10.20;;;17.50;99.90;;;;;;5060955;27;39393;-78
2022/08/18 03:10:14;;;;;;;12.20;10.90;;;17.50;99.90;;;;;;5059529;28;38794;-78
2022/08/18 03:12:43;;;;;;;12.27;10.32;;;17.50;99.90;;;;;;5055781;27;39868;-78
2022/08/18 03:15:11;;;;;;;11.98;10.80;;;17.50;99.90;;;;;;5059810;27;39722;-78
2022/08/18 03:17:37;;;;;;;12.98;11.68;;;17.50;99.90;;;;;;5050671;27;39462;-78
2022/08/18 03:20:05;;;;;;;13.85;11.02;;;17.50;99.90;;;;;;5041057;28;36986;-77
2022/08/18 03:22:31;;;;;;;14.13;12.73;;;17.60;99.90;;;;;;5036503;28;39581;-78
2022/08/18 03:24:57;;;;;;;13.73;12.30;;;17.60;99.90;;;;;;5037047;28;38861;-78
2022/08/18 03:27:23;;;;;;;13.85;12.43;;;17.60;99.90;;;;;;5041239;28;39409;-77
2022/08/18 03:29:50;;;;;;;15.35;13.20;;;17.60;99.90;;;;;;5034524;28;36706;-77
2022/08/18 03:32:17;;;;;;;13.88;12.38;;;17.70;99.90;;;;;;5034856;28;38577;-77
2022/08/18 03:34:43;;;;;;;15.32;13.23;;;17.70;99.90;;;;;;5041537;28;38375;-78
2022/08/18 03:37:09;;;;;;;14.35;12.65;;;17.70;99.90;;;;;;5040136;28;37856;-78
2022/08/18 03:39:35;;;;;;;14.18;12.77;;;17.70;99.90;;;;;;5042185;28;38162;-77
2022/08/18 03:42:02;;;;;;;14.55;13.15;;;17.70;99.90;;;;;;5040651;28;38933;-77
2022/08/18 03:44:35;;;;;;;15.55;14.05;;;17.80;99.90;;;;;;5038235;28;38365;-77
2022/08/18 03:47:02;;;;;;;14.15;12.85;;;17.80;99.90;;;;;;5040295;28;38216;-78
2022/08/18 03:49:29;;;;;;;15.32;13.73;;;17.80;99.90;;;;;;5041769;28;48925;-78
2022/08/18 03:51:59;;;;;;;15.30;13.80;;;17.80;99.90;;;;;;5040388;28;39331;-77
2022/08/18 03:54:25;;;;;;;14.40;12.95;;;17.80;99.90;;;;;;5040528;28;39095;-78
2022/08/18 03:56:53;;;;;;;15.45;13.95;;;17.90;99.90;;;;;;5040320;28;39207;-77
2022/08/18 03:59:22;;;;;;;16.88;15.07;;;17.90;99.90;;;;;;5039898;28;37157;-78
2022/08/18 04:01:50;;;;;;;17.20;15.23;;;18.00;99.90;;;;;;5036448;28;39468;-78
2022/08/18 04:04:19;;;;;;;19.13;15.13;;;18.00;99.90;;;;;;5033734;28;39132;-77
2022/08/18 04:06:50;;;;;;;18.52;15.98;;;18.00;99.90;;;;;;5038223;28;39093;-78
2022/08/18 04:09:19;;;;;;;15.45;13.93;;;18.10;99.90;;;;;;5034843;28;38213;-77
2022/08/18 04:11:46;;;;;;;13.88;12.57;;;18.10;99.90;;;;;;5040846;28;40248;-77
2022/08/18 04:14:16;;;;;;;15.88;14.27;;;18.20;99.90;;;;;;5047841;28;20049;-76
2022/08/18 04:16:43;;;;;;;14.73;13.23;;;18.20;99.90;;;;;;5040950;28;38749;-77
2022/08/18 04:19:12;;;;;;;15.50;13.90;;;18.30;99.90;;;;;;5044439;27;38916;-76
2022/08/18 04:21:41;;;;;;;15.60;13.88;;;18.20;99.90;;;;;;5042541;28;39382;-76
2022/08/18 04:24:12;;;;;;;17.73;15.85;;;18.20;99.90;;;;;;5042172;27;38540;-76
2022/08/18 04:26:41;;;;;;;18.33;15.85;;;18.20;99.90;;;;;;5055411;28;38566;-77
2022/08/18 04:29:09;;;;;;;22.85;18.08;;;18.30;99.90;;;;;;5060896;28;37496;-77
2022/08/18 04:31:36;;;;;;;19.50;16.77;;;18.30;99.90;;;;;;5035640;28;40456;-76
2022/08/18 04:34:03;;;;;;;17.88;14.90;;;18.30;99.90;;;;;;5035170;28;38356;-77
2022/08/18 04:36:32;;;;;;;15.70;13.60;;;18.40;99.90;;;;;;5041458;28;38750;-76
2022/08/18 04:38:59;;;;;;;14.32;12.88;;;18.40;99.90;;;;;;5037934;28;37759;-77
2022/08/18 04:41:26;;;;;;;16.75;14.98;;;18.50;99.90;;;;;;5044033;28;39763;-77
2022/08/18 04:43:57;;;;;;;23.20;17.23;;;18.60;99.90;;;;;;5042686;28;38389;-77
2022/08/18 04:46:24;;;;;;;20.25;16.35;;;18.70;99.90;;;;;;5039299;28;38508;-76
2022/08/18 04:48:51;;;;;;;19.98;15.63;;;18.80;99.90;;;;;;5037804;28;39074;-77
2022/08/18 04:51:19;;;;;;;19.83;17.73;;;18.90;99.90;;;;;;5044692;28;38328;-76
2022/08/18 04:53:46;;;;;;;17.38;14.75;;;18.90;99.90;;;;;;5037991;28;39013;-76
2022/08/18 04:56:28;;;;;;;14.73;13.30;;;18.90;99.90;;;;;;5049568;28;38420;-77
2022/08/18 04:59:24;;;;;;;18.55;15.05;;;18.90;99.90;;;;;;5036171;28;39328;-77
2022/08/18 05:01:50;;;;;;;16.38;14.57;;;18.90;99.90;;;;;;5021826;27;48708;-76
2022/08/18 05:04:16;;;;;;;21.48;16.45;;;18.90;99.90;;;;;;5034222;28;38863;-77
2022/08/18 05:06:44;;;;;;;18.05;16.08;;;18.90;99.90;;;;;;5059905;27;38023;-76
2022/08/18 05:09:12;;;;;;;16.73;14.77;;;18.90;99.90;;;;;;5032797;28;38277;-77
2022/08/18 05:11:40;;;;;;;15.95;13.32;;;18.90;99.90;;;;;;5034178;28;39507;-76
2022/08/18 05:14:07;;;;;;;16.27;14.60;;;18.90;99.90;;;;;;5043193;27;38051;-77
2022/08/18 05:16:35;;;;;;;17.30;14.63;;;18.80;99.90;;;;;;5056601;27;38049;-77
2022/08/18 05:19:03;;;;;;;15.55;13.57;;;18.80;99.90;;;;;;5042025;28;37088;-77
2022/08/18 05:21:31;;;;;;;15.48;13.88;;;18.80;99.90;;;;;;5044403;28;39586;-77
2022/08/18 05:23:57;;;;;;;14.25;12.75;;;18.80;99.90;;;;;;5043140;28;38578;-77
2022/08/18 05:26:24;;;;;;;16.02;14.52;;;18.80;99.90;;;;;;5043758;28;38379;-77
2022/08/18 05:28:50;;;;;;;14.90;13.43;;;18.90;99.90;;;;;;5045123;28;38451;-77
2022/08/18 05:31:20;;;;;;;13.90;12.45;;;18.90;99.90;;;;;;5045296;28;38519;-77
2022/08/18 05:33:47;;;;;;;19.15;15.40;;;18.90;99.90;;;;;;5042753;28;39360;-76
2022/08/18 05:36:22;;;;;;;13.88;12.55;;;19.00;99.90;;;;;;5043523;28;38154;-77
2022/08/18 05:39:10;;;;;;;14.93;13.23;;;19.10;99.90;;;;;;5039676;28;37132;-77
2022/08/18 05:41:53;;;;;;;18.85;15.57;;;19.20;99.90;;;;;;5037658;28;47447;-77
2022/08/18 05:44:26;;;;;;;12.73;11.40;;;19.40;99.90;;;;;;5052656;28;38835;-77
2022/08/18 05:46:59;;;;;;;12.77;11.57;;;19.50;99.90;;;;;;5041343;28;39518;-77
2022/08/18 05:49:26;;;;;;;13.07;11.82;;;19.70;99.90;;;;;;5036539;28;37679;-76
2022/08/18 05:51:58;;;;;;;13.57;12.15;;;19.70;99.90;;;;;;5040349;28;39327;-77
2022/08/18 05:57:20;;;;;;;14.43;11.75;;;19.90;99.90;;;;;;5037849;27;39086;-78
2022/08/18 05:59:47;;;;;;;12.45;11.15;;;19.90;99.90;;;;;;5040129;28;37551;-77
2022/08/18 06:02:37;;;;;;;11.55;10.35;;;20.00;99.90;;;;;;5046316;28;38841;-77
2022/08/18 06:05:15;;;;;;;9.85;8.73;;;20.20;99.90;;;;;;5042910;28;39807;-77
2022/08/18 06:07:47;;;;;;;8.80;6.82;;;20.30;99.90;;;;;;5039073;28;38222;-77
2022/08/18 06:10:14;;;;;;;9.02;7.20;;;20.40;99.90;;;;;;5042796;28;38225;-77
2022/08/18 06:12:48;;;;;;;8.48;7.38;;;20.30;99.90;;;;;;5040110;28;39119;-77
2022/08/18 06:15:20;;;;;;;8.60;7.70;;;20.30;99.90;;;;;;5048951;28;41659;-77
2022/08/18 06:17:58;;;;;;;9.93;7.40;;;20.30;99.90;;;;;;5046785;28;38735;-78
2022/08/18 06:20:48;;;;;;;10.00;7.05;;;20.30;99.90;;;;;;5040468;28;37229;-78
2022/08/18 06:23:39;;;;;;;9.77;8.13;;;20.40;99.90;;;;;;5040137;28;40676;-78
2022/08/18 06:26:22;;;;;;;9.73;7.70;;;20.40;99.90;;;;;;5041545;28;38719;-78
2022/08/18 06:29:12;;;;;;;6.80;6.10;;;20.50;99.90;;;;;;5041602;28;38846;-78
2022/08/18 06:31:55;;;;;;;7.18;5.63;;;20.50;99.90;;;;;;5060874;27;49058;-78
2022/08/18 06:34:41;;;;;;;7.10;6.18;;;20.60;99.90;;;;;;5078902;28;39891;-77
2022/08/18 06:37:24;;;;;;;5.95;5.35;;;20.60;99.90;;;;;;5080005;27;38671;-79
2022/08/18 06:39:51;;;;;;;10.65;6.05;;;20.70;99.90;;;;;;5066211;28;39194;-79
2022/08/18 06:42:20;;;;;;;9.10;6.38;;;20.70;99.90;;;;;;5066879;27;37435;-79
2022/08/18 06:44:53;;;;;;;7.43;5.97;;;20.70;99.90;;;;;;5096115;27;40044;-79
2022/08/18 06:47:36;;;;;;;6.47;5.47;;;20.70;99.90;;;;;;5061906;27;38865;-79
2022/08/18 06:50:17;;;;;;;5.95;5.45;;;20.70;99.90;;;;;;5060482;28;38254;-79
2022/08/18 06:52:59;;;;;;;6.10;4.88;;;20.60;99.90;;;;;;5064853;27;48821;-79
2022/08/18 06:55:31;;;;;;;7.90;6.15;;;20.70;99.90;;;;;;5058814;27;38344;-79
2022/08/18 06:58:02;;;;;;;5.90;5.28;;;20.80;99.90;;;;;;5062183;27;39047;-78
2022/08/18 07:00:30;;;;;;;5.53;4.93;;;20.90;99.90;;;;;;5063099;27;49225;-78
2022/08/18 07:03:03;;;;;;;6.07;4.45;;;21.00;99.90;;;;;;5061104;28;36800;-78
2022/08/18 07:05:32;;;;;;;6.65;4.68;;;21.20;99.90;;;;;;5061534;28;47251;-78
2022/08/18 07:08:27;;;;;;;4.55;3.80;;;21.40;99.90;;;;;;5065980;28;39851;-79
2022/08/18 07:10:53;;;;;;;6.10;4.25;;;21.60;99.90;;;;;;5071095;28;47273;-79
2022/08/18 07:13:21;;;;;;;6.00;4.28;;;21.80;99.90;;;;;;5063631;28;36465;-78
2022/08/18 07:15:48;;;;;;;5.70;4.95;;;21.90;99.90;;;;;;5067040;28;39559;-78
2022/08/18 07:18:24;;;;;;;11.55;7.03;;;21.80;99.90;;;;;;5066212;27;38259;-78
2022/08/18 07:20:57;;;;;;;11.40;6.32;;;21.80;99.90;;;;;;5063780;28;38838;-78
2022/08/18 07:23:37;;;;;;;8.20;6.90;;;21.60;99.90;;;;;;5066931;27;37416;-78
2022/08/18 07:26:15;;;;;;;8.88;7.22;;;21.60;99.90;;;;;;5065853;27;39663;-78
2022/08/18 07:28:43;;;;;;;8.15;5.95;;;21.60;99.90;;;;;;5054905;28;40125;-78
2022/08/18 07:31:18;;;;;;;4.97;4.47;;;21.70;99.90;;;;;;5055465;27;37903;-78
2022/08/18 07:34:01;;;;;;;7.80;4.88;;;22.00;99.90;;;;;;5063970;27;39239;-79
2022/08/18 07:36:32;;;;;;;5.97;4.25;;;22.40;99.90;;;;;;5053938;27;48253;-78
2022/08/18 07:39:10;;;;;;;5.50;4.25;;;22.80;99.90;;;;;;5060274;27;39208;-78
2022/08/18 07:41:47;;;;;;;3.58;3.22;;;23.30;99.90;;;;;;5056225;28;47049;-79
2022/08/18 07:44:33;;;;;;;9.38;4.97;;;23.60;99.90;;;;;;5057625;27;39156;-78
2022/08/18 07:47:11;;;;;;;6.97;4.00;;;23.70;99.90;;;;;;5055112;28;40087;-78
2022/08/18 07:49:40;;;;;;;4.60;3.17;;;23.50;99.90;;;;;;5054201;28;47211;-78
2022/08/18 07:52:23;;;;;;;4.10;3.40;;;23.20;99.90;;;;;;5051335;28;38492;-78
2022/08/18 07:55:02;;;;;;;5.60;3.70;;;23.00;99.90;;;;;;5051844;28;37077;-78
2022/08/18 07:58:06;;;;;;;4.35;3.17;;;23.00;99.90;;;;;;5052695;27;41283;-78
2022/08/18 08:00:55;;;;;;;4.10;3.55;;;23.50;99.90;;;;;;5014857;28;47202;-78
2022/08/18 08:03:40;;;;;;;4.53;3.17;;;23.90;99.90;;;;;;5003632;28;38070;-78
2022/08/18 08:06:21;;;;;;;4.75;3.60;;;24.00;99.90;;;;;;5033538;28;37899;-79
2022/08/18 08:08:59;;;;;;;5.68;4.13;;;24.50;99.90;;;;;;5063124;27;37352;-78
2022/08/18 08:11:31;;;;;;;4.18;3.42;;;24.50;99.90;;;;;;5063073;27;38556;-78
2022/08/18 08:14:11;;;;;;;8.23;4.07;;;24.40;99.90;;;;;;5062319;28;38648;-79
2022/08/18 08:16:55;;;;;;;5.20;3.42;;;24.50;99.90;;;;;;5062677;28;47208;-79
2022/08/18 08:19:27;;;;;;;6.07;3.70;;;24.10;99.90;;;;;;5062848;28;38600;-78
2022/08/18 08:22:04;;;;;;;3.65;3.35;;;24.00;99.90;;;;;;5060116;28;37108;-78
2022/08/18 08:24:50;;;;;;;6.35;4.30;;;24.00;99.90;;;;;;5062087;28;47319;-78
2022/08/18 08:27:44;;;;;;;5.13;3.47;;;23.90;99.90;;;;;;5064297;27;38299;-78
2022/08/18 08:30:17;;;;;;;4.90;3.75;;;23.80;99.90;;;;;;5064080;28;38316;-78
2022/08/18 08:33:23;;;;;;;6.63;3.42;;;23.70;99.90;;;;;;5058208;28;38400;-78
2022/08/18 08:36:09;;;;;;;5.53;3.28;;;23.50;99.90;;;;;;5044581;28;47202;-78
2022/08/18 08:38:46;;;;;;;5.78;3.25;;;23.40;99.90;;;;;;5035631;28;47251;-77
2022/08/18 08:41:36;;;;;;;6.65;4.60;;;23.20;99.90;;;;;;5069440;28;39403;-77
2022/08/18 08:44:18;;;;;;;8.48;5.00;;;23.10;99.90;;;;;;5031377;28;39101;-77
2022/08/18 08:47:28;;;;;;;6.57;4.75;;;23.00;99.90;;;;;;5064461;28;38351;-78
2022/08/18 08:50:01;;;;;;;5.25;4.10;;;22.90;99.90;;;;;;5034128;28;47243;-78
2022/08/18 08:52:49;;;;;;;4.20;3.63;;;22.80;99.90;;;;;;5048585;28;42280;-77
2022/08/18 08:55:17;;;;;;;4.20;3.75;;;22.70;99.90;;;;;;5047076;28;37893;-78
2022/08/18 08:57:56;;;;;;;5.75;3.72;;;22.80;99.90;;;;;;5044875;28;38943;-78
2022/08/18 09:00:24;;;;;;;5.65;3.30;;;22.90;99.90;;;;;;5039350;28;37696;-78
2022/08/18 09:02:58;;;;;;;4.72;2.90;;;23.00;99.90;;;;;;5043199;28;38698;-78
2022/08/18 09:05:34;;;;;;;4.55;3.30;;;23.10;99.90;;;;;;5041871;28;39540;-78
2022/08/18 09:08:09;;;;;;;3.30;2.75;;;23.20;99.90;;;;;;5045186;28;38221;-78
2022/08/18 09:10:41;;;;;;;3.25;2.95;;;23.20;99.90;;;;;;5036863;28;47169;-78
2022/08/18 09:13:38;;;;;;;2.72;2.53;;;23.40;99.90;;;;;;5043566;28;38629;-78
2022/08/18 09:16:13;;;;;;;4.70;3.30;;;23.40;99.90;;;;;;5061779;28;38730;-78
2022/08/18 09:19:10;;;;;;;3.13;2.83;;;23.60;99.90;;;;;;5046926;28;37356;-78
2022/08/18 09:21:53;;;;;;;5.85;3.28;;;24.10;99.90;;;;;;5061373;28;47137;-79
2022/08/18 09:24:25;;;;;;;4.28;3.55;;;24.70;99.90;;;;;;5063474;28;39222;-78
2022/08/18 09:27:22;;;;;;;4.30;2.95;;;25.00;99.90;;;;;;5063431;28;40130;-78
2022/08/18 09:29:57;;;;;;;3.83;3.10;;;24.90;99.90;;;;;;5065002;28;48798;-77
2022/08/18 09:32:24;;;;;;;4.47;2.55;;;24.90;99.90;;;;;;5062925;28;37755;-76
2022/08/18 09:35:09;;;;;;;5.30;2.67;;;24.60;99.90;;;;;;5061428;28;38796;-76
2022/08/18 09:37:43;;;;;;;2.70;2.25;;;24.60;99.90;;;;;;5064928;28;46805;-76
2022/08/18 09:43:30;;;;;;;3.15;2.20;;;24.40;99.90;;;;;;5065795;27;38887;-76
2022/08/18 09:45:59;;;;;;;1.90;1.63;;;24.20;99.90;;;;;;5064327;28;37853;-77
2022/08/18 09:48:32;;;;;;;2.63;2.35;;;24.10;99.90;;;;;;5066026;28;38856;-77
2022/08/18 09:51:31;;;;;;;2.90;2.10;;;24.00;99.90;;;;;;5067010;28;37609;-77
2022/08/18 09:54:14;;;;;;;3.38;1.88;;;23.90;99.90;;;;;;5066802;28;49071;-77
2022/08/18 09:56:49;;;;;;;2.85;2.25;;;23.90;99.90;;;;;;5059378;28;47267;-75
2022/08/18 09:59:35;;;;;;;2.13;1.90;;;23.90;99.90;;;;;;5077018;28;38004;-77
2022/08/18 10:02:26;;;;;;;3.88;2.50;;;23.80;99.90;;;;;;5042798;28;38056;-77
2022/08/18 10:05:14;;;;;;;2.10;1.90;;;23.90;99.90;;;;;;5074602;28;38058;-77
2022/08/18 10:07:43;;;;;;;3.22;2.30;;;23.80;99.90;;;;;;5062946;28;47167;-77
2022/08/18 10:10:29;;;;;;;3.00;2.70;;;23.80;99.90;;;;;;5059572;28;39891;-76
2022/08/18 10:13:06;;;;;;;2.67;2.28;;;23.90;99.90;;;;;;5064300;28;37449;-79
2022/08/18 10:15:41;;;;;;;3.03;2.45;;;23.80;99.90;;;;;;5057964;28;46991;-78
2022/08/18 10:18:07;;;;;;;5.63;2.70;;;23.70;99.90;;;;;;5063351;28;39211;-78
2022/08/18 10:20:46;;;;;;;3.15;2.50;;;23.80;99.90;;;;;;5060977;28;38171;-78
2022/08/18 10:23:51;;;;;;;2.75;2.38;;;23.80;99.90;;;;;;5061960;28;38898;-78
2022/08/18 10:26:30;;;;;;;2.50;2.30;;;23.80;99.90;;;;;;5056091;28;37436;-77
2022/08/18 10:29:05;;;;;;;4.32;2.08;;;23.80;99.90;;;;;;5057918;28;39210;-76
2022/08/18 10:31:57;;;;;;;2.42;2.03;;;23.80;99.90;;;;;;5070233;28;47263;-77
2022/08/18 10:34:43;;;;;;;1.90;1.40;;;23.70;99.90;;;;;;5057120;28;38738;-78
2022/08/18 10:37:36;;;;;;;1.98;1.50;;;23.70;99.90;;;;;;5057496;28;36147;-78
2022/08/18 10:40:08;;;;;;;4.95;1.67;;;23.80;99.90;;;;;;5065284;28;40040;-79
2022/08/18 10:42:39;;;;;;;;;;;23.90;99.90;;;;;;5064524;28;37243;-78
2022/08/18 10:45:25;;;;;;;3.25;2.00;;;23.90;99.90;;;;;;5060641;28;37033;-79
2022/08/18 10:48:03;;;;;;;2.45;1.63;;;24.10;99.90;;;;;;5062577;28;37524;-78
2022/08/18 10:51:02;;;;;;;1.92;1.70;;;24.10;99.90;;;;;;5047879;28;46994;-78
2022/08/18 10:53:38;;;;;;;2.60;1.60;;;24.50;99.90;;;;;;5033063;28;47251;-78
2022/08/18 10:56:22;;;;;;;1.77;1.33;;;24.50;99.90;;;;;;5044737;28;37957;-79
2022/08/18 10:59:21;;;;;;;3.17;1.73;;;24.50;99.90;;;;;;5041005;28;37161;-78
2022/08/18 11:02:06;;;;;;;4.07;1.55;;;24.40;99.90;;;;;;5042338;28;48500;-79
2022/08/18 11:04:46;;;;;;;1.98;1.20;;;24.30;99.90;;;;;;5034863;28;48732;-78
2022/08/18 11:07:18;;;;;;;3.65;1.33;;;24.30;99.90;;;;;;5036880;28;36254;-78
2022/08/18 11:09:49;;;;;;;2.13;1.30;;;24.30;99.90;;;;;;5048516;28;36047;-78
2022/08/18 11:12:51;;;;;;;2.28;1.50;;;24.30;99.90;;;;;;5043332;28;38347;-79
2022/08/18 11:15:26;;;;;;;1.67;1.10;;;24.30;99.90;;;;;;5036116;28;38642;-77
2022/08/18 11:18:27;;;;;;;2.78;1.40;;;24.50;99.90;;;;;;5035396;28;38567;-76
2022/08/18 11:21:13;;;;;;;2.65;1.20;;;24.90;99.90;;;;;;5060762;28;47156;-77
2022/08/18 11:23:39;;;;;;;2.22;1.50;;;25.40;99.90;;;;;;5053505;28;47117;-77
2022/08/18 11:26:16;;;;;;;2.75;1.30;;;25.80;99.90;;;;;;5048624;28;38213;-77
2022/08/18 11:28:42;;;;;;;1.50;1.40;;;25.90;99.90;;;;;;5039515;28;38710;-78
2022/08/18 11:31:08;;;;;;;1.83;1.40;;;25.90;99.90;;;;;;5040365;28;37846;-78
2022/08/18 11:33:40;;;;;;;2.65;1.20;;;25.80;99.90;;;;;;5038719;28;38364;-78
2022/08/18 11:36:07;;;;;;;2.28;1.40;;;26.00;99.90;;;;;;5040774;28;38669;-78
2022/08/18 11:38:36;;;;;;;1.58;1.23;;;26.50;99.90;;;;;;5035386;28;38789;-78
2022/08/18 11:41:12;;;;;;;2.33;1.20;;;26.50;99.90;;;;;;5037291;28;37017;-78
2022/08/18 11:43:39;;;;;;;6.15;1.55;;;26.20;99.90;;;;;;5037174;28;37511;-77
2022/08/18 11:46:19;;;;;;;2.95;1.17;;;26.00;99.90;;;;;;5039888;28;39825;-78
2022/08/18 11:48:49;;;;;;;2.78;1.63;;;25.60;99.90;;;;;;5041098;28;38279;-78
2022/08/18 11:51:16;;;;;;;2.20;1.67;;;25.30;99.90;;;;;;5040339;28;38956;-78
2022/08/18 11:53:48;;;;;;;2.60;1.42;;;25.30;99.90;;;;;;5037697;28;40675;-78
2022/08/18 11:56:15;;;;;;;1.70;1.30;;;25.20;99.90;;;;;;5041163;28;38955;-77
2022/08/18 11:58:47;;;;;;;2.10;1.20;;;25.00;99.90;;;;;;5049550;28;37572;-76
2022/08/18 12:01:32;;;;;;;2.25;1.00;;;25.20;99.90;;;;;;5061729;27;37064;-77
2022/08/18 12:04:24;;;;;;;2.35;1.20;;;25.70;99.90;;;;;;5079925;27;37856;-78
2022/08/18 12:06:59;;;;;;;3.28;1.20;;;26.30;99.90;;;;;;5065681;27;49481;-78
2022/08/18 12:09:46;;;;;;;3.22;1.30;;;26.50;99.90;;;;;;5077332;28;38244;-78
2022/08/18 12:12:23;;;;;;;3.30;1.00;;;26.90;99.90;;;;;;5064644;27;38046;-77
2022/08/18 12:15:23;;;;;;;2.92;1.10;;;27.00;99.90;;;;;;5062187;28;38870;-77
2022/08/18 12:17:50;;;;;;;2.72;1.27;;;27.10;99.90;;;;;;5053385;28;48525;-78
2022/08/18 12:20:16;;;;;;;3.15;1.60;;;27.50;99.90;;;;;;5055215;27;37717;-77
2022/08/18 12:22:44;;;;;;;2.10;1.20;;;27.90;99.90;;;;;;5060411;27;37760;-77
2022/08/18 12:25:16;;;;;;;6.47;1.55;;;28.00;99.90;;;;;;5061286;28;39427;-77
2022/08/18 12:27:42;;;;;;;2.35;1.13;;;27.60;99.90;;;;;;5063564;27;38366;-78
2022/08/18 12:30:10;;;;;;;2.53;1.20;;;27.20;99.90;;;;;;5059006;28;38972;-77
2022/08/18 12:32:38;;;;;;;3.00;1.85;;;26.90;99.90;;;;;;5093620;27;38006;-77
2022/08/18 12:35:10;;;;;;;3.53;1.30;;;26.60;99.90;;;;;;5055137;28;39714;-77
2022/08/18 12:37:40;;;;;;;2.55;1.40;;;26.30;99.90;;;;;;5059487;28;47223;-77
2022/08/18 12:40:07;;;;;;;2.38;1.20;;;25.90;99.90;;;;;;5055684;28;37833;-77
2022/08/18 12:42:33;;;;;;;2.03;1.45;;;25.60;99.90;;;;;;5065866;28;37816;-77
2022/08/18 12:44:59;;;;;;;1.73;1.30;;;25.50;99.90;;;;;;5059656;28;39331;-77
2022/08/18 12:47:26;;;;;;;5.93;1.45;;;25.40;99.90;;;;;;5088251;27;38890;-77
2022/08/18 12:49:52;;;;;;;3.05;1.52;;;25.20;99.90;;;;;;5061431;28;39117;-77
2022/08/18 12:52:19;;;;;;;2.80;1.38;;;25.00;99.90;;;;;;5054772;27;37690;-76
2022/08/18 12:54:45;;;;;;;1.88;1.17;;;25.00;99.90;;;;;;5060146;28;39309;-76
2022/08/18 12:57:24;;;;;;;2.13;1.10;;;24.90;99.90;;;;;;5050480;28;39274;-75
2022/08/18 12:59:50;;;;;;;1.52;1.13;;;25.00;99.90;;;;;;5056568;27;37537;-76
2022/08/18 13:02:17;;;;;;;1.42;1.08;;;24.90;99.90;;;;;;5059146;27;37378;-76
2022/08/18 13:04:43;;;;;;;1.73;1.15;;;25.00;99.90;;;;;;5059130;28;39972;-77
2022/08/18 13:07:12;;;;;;;3.90;1.20;;;25.40;99.90;;;;;;5059992;27;38138;-76
2022/08/18 13:09:38;;;;;;;4.15;1.30;;;25.90;99.90;;;;;;5051596;28;39464;-76
2022/08/18 13:12:05;;;;;;;2.75;1.27;;;26.10;99.90;;;;;;5056762;27;38184;-77
2022/08/18 13:14:32;;;;;;;4.97;1.55;;;26.20;99.90;;;;;;5063945;28;38516;-77
2022/08/18 13:16:58;;;;;;;3.92;1.30;;;26.50;99.90;;;;;;5056166;28;38767;-76
2022/08/18 13:19:24;;;;;;;5.53;1.63;;;26.60;99.90;;;;;;5062164;28;37449;-77
2022/08/18 13:21:50;;;;;;;2.53;1.45;;;26.50;99.90;;;;;;5062645;28;37550;-77